VIAH weather

Public forecast

Using degrees Celsius for public forecast. Weather courtesy of forecast.io.

Closest aviation weather report (METAR) to Dhanipur Airstrip

Closest report is Agra Airport, 43.5 nm (80.5 km) SSW. Retrieved 2020/08/10 14:30 UTC (58 minutes ago):

VIAG 101430Z VRB01KT 6000 SCT020 BKN090 28/28 Q0999 NOSIG

Closest aviation forecast (TAF) to Dhanipur Airstrip

Closest forecast is Agra Airport, 43.5 nm (80.5 km) SSW. Retrieved 2020/08/10 12:30 UTC (3 hours ago):

TAF VIAG 100930Z 1012/1024 30008KT 5000 BR SCT010 BKN100 TEMPO 1012/1014 3000 TS RA SCT008 BKN100 FEW030TCU/CB